Time;durP1;ratioP1;P1;durP2;ratioP2;P2;SDS_P1;SDS_P2;PMS_P1;PMS_P2;Temp;Humidity;BMP_temperature;BMP_pressure;BME280_temperature;BME280_humidity;BME280_pressure;Samples;Min_cycle;Max_cycle;Signal;HPM_P1;HPM_P2
2023/10/24 00:01:04;;;;;;;9.68;6.15;;;;;;;;;;5115308;28;20103;-81
2023/10/24 00:03:30;;;;;;;9.45;6.32;;;;;;;;;;5103351;28;20031;-81
2023/10/24 00:05:56;;;;;;;11.57;6.20;;;;;;;;;;5121445;28;20031;-81
2023/10/24 00:08:22;;;;;;;8.35;5.97;;;;;;;;;;5119001;28;20035;-81
2023/10/24 00:10:48;;;;;;;11.32;6.57;;;;;;;;;;5120590;28;20174;-81
2023/10/24 00:13:16;;;;;;;8.88;5.90;;;;;;;;;;5119838;28;20039;-81
2023/10/24 00:15:43;;;;;;;9.25;5.72;;;;;;;;;;5117666;28;20032;-80
2023/10/24 00:18:13;;;;;;;9.60;5.47;;;;;;;;;;5119185;28;20035;-80
2023/10/24 00:20:39;;;;;;;9.77;5.90;;;;;;;;;;5120467;28;20040;-80
2023/10/24 00:23:05;;;;;;;9.45;4.95;;;;;;;;;;5119168;28;20115;-80
2023/10/24 00:25:31;;;;;;;10.35;6.70;;;;;;;;;;5120491;28;20122;-80
2023/10/24 00:27:57;;;;;;;9.75;5.68;;;;;;;;;;5118179;28;20054;-81
2023/10/24 00:30:23;;;;;;;9.50;5.97;;;;;;;;;;5117758;28;20050;-80
2023/10/24 00:32:50;;;;;;;8.60;5.93;;;;;;;;;;5119124;28;20044;-80
2023/10/24 00:35:17;;;;;;;8.57;5.68;;;;;;;;;;5121251;27;20038;-80
2023/10/24 00:37:43;;;;;;;8.85;6.10;;;;;;;;;;5126745;28;20040;-80
2023/10/24 00:40:09;;;;;;;9.23;5.80;;;;;;;;;;5128131;28;20052;-80
2023/10/24 00:42:35;;;;;;;10.13;6.10;;;;;;;;;;5131987;28;20048;-81
2023/10/24 00:45:01;;;;;;;9.57;6.00;;;;;;;;;;5132747;28;20067;-80
2023/10/24 00:47:31;;;;;;;9.40;5.85;;;;;;;;;;5131845;28;20024;-80
2023/10/24 00:49:57;;;;;;;11.30;5.50;;;;;;;;;;5123833;28;20042;-80
2023/10/24 00:52:23;;;;;;;6.82;5.22;;;;;;;;;;5116507;28;20092;-80
2023/10/24 00:54:49;;;;;;;10.63;5.70;;;;;;;;;;5115826;28;20068;-80
2023/10/24 00:57:15;;;;;;;8.98;5.63;;;;;;;;;;5114448;28;20047;-80
2023/10/24 00:59:41;;;;;;;10.30;6.00;;;;;;;;;;5116585;28;20044;-81
2023/10/24 01:02:07;;;;;;;7.35;5.03;;;;;;;;;;5117452;28;20065;-80
2023/10/24 01:04:35;;;;;;;7.72;5.30;;;;;;;;;;5116536;28;20126;-80
2023/10/24 01:07:01;;;;;;;7.35;5.50;;;;;;;;;;5114921;28;20044;-80
2023/10/24 01:09:27;;;;;;;7.72;5.63;;;;;;;;;;5116436;28;20043;-80
2023/10/24 01:11:55;;;;;;;8.93;5.13;;;;;;;;;;5113786;28;20040;-81
2023/10/24 01:14:21;;;;;;;9.55;5.22;;;;;;;;;;5112095;28;20152;-80
2023/10/24 01:16:47;;;;;;;9.20;6.05;;;;;;;;;;5116626;28;20043;-80
2023/10/24 01:19:13;;;;;;;8.68;5.13;;;;;;;;;;5118441;28;20063;-81
2023/10/24 01:21:46;;;;;;;7.75;5.32;;;;;;;;;;5117660;28;20040;-81
2023/10/24 01:24:16;;;;;;;6.85;4.50;;;;;;;;;;5117121;28;20039;-81
2023/10/24 01:26:42;;;;;;;9.02;5.38;;;;;;;;;;5118828;28;20567;-81
2023/10/24 01:29:11;;;;;;;7.57;5.22;;;;;;;;;;5117985;28;20042;-81
2023/10/24 01:31:37;;;;;;;7.28;5.10;;;;;;;;;;5117012;28;20040;-81
2023/10/24 01:34:04;;;;;;;7.38;5.18;;;;;;;;;;5117980;28;20039;-80
2023/10/24 01:36:30;;;;;;;8.15;5.00;;;;;;;;;;5115717;28;20031;-80
2023/10/24 01:38:56;;;;;;;7.50;4.97;;;;;;;;;;5116944;28;20048;-80
2023/10/24 01:41:22;;;;;;;8.13;4.80;;;;;;;;;;5119899;28;20057;-81
2023/10/24 01:43:48;;;;;;;8.32;5.18;;;;;;;;;;5121082;28;20035;-80
2023/10/24 01:46:14;;;;;;;7.05;5.15;;;;;;;;;;5120003;28;20047;-80
2023/10/24 01:48:40;;;;;;;9.20;5.25;;;;;;;;;;5122091;28;20036;-81
2023/10/24 01:51:06;;;;;;;6.55;4.65;;;;;;;;;;5116252;28;20478;-80
2023/10/24 01:53:32;;;;;;;6.57;4.68;;;;;;;;;;5119408;28;20047;-80
2023/10/24 01:55:58;;;;;;;6.38;4.47;;;;;;;;;;5100864;28;20031;-80
2023/10/24 01:58:24;;;;;;;9.02;5.78;;;;;;;;;;5121764;28;20050;-80
2023/10/24 02:00:50;;;;;;;9.45;4.75;;;;;;;;;;5118209;28;20057;-80
2023/10/24 02:03:16;;;;;;;7.30;5.00;;;;;;;;;;5120286;28;20047;-80
2023/10/24 02:05:42;;;;;;;6.47;4.60;;;;;;;;;;5118903;28;20501;-80
2023/10/24 02:08:08;;;;;;;7.90;4.78;;;;;;;;;;5121053;28;20061;-80
2023/10/24 02:10:34;;;;;;;5.90;4.22;;;;;;;;;;5121214;28;20040;-80
2023/10/24 02:13:00;;;;;;;8.20;4.15;;;;;;;;;;5119633;28;20035;-80
2023/10/24 02:15:26;;;;;;;6.90;5.03;;;;;;;;;;5118547;28;20040;-80
2023/10/24 02:17:52;;;;;;;8.10;4.13;;;;;;;;;;5117288;27;20046;-80
2023/10/24 02:20:18;;;;;;;7.68;5.00;;;;;;;;;;5112397;28;20100;-80
2023/10/24 02:22:47;;;;;;;5.78;4.68;;;;;;;;;;5119170;28;20035;-79
2023/10/24 02:25:13;;;;;;;7.65;4.32;;;;;;;;;;5118085;28;20040;-79
2023/10/24 02:27:39;;;;;;;6.53;3.95;;;;;;;;;;5119610;28;20051;-80
2023/10/24 02:30:06;;;;;;;6.32;4.47;;;;;;;;;;5117614;28;20051;-80
2023/10/24 02:32:32;;;;;;;7.95;4.82;;;;;;;;;;5117243;28;20040;-80
2023/10/24 02:34:58;;;;;;;7.65;4.82;;;;;;;;;;5116857;28;20486;-80
2023/10/24 02:37:24;;;;;;;7.78;4.55;;;;;;;;;;5117648;28;20092;-80
2023/10/24 02:39:50;;;;;;;7.00;5.20;;;;;;;;;;5101247;28;20046;-80
2023/10/24 02:42:16;;;;;;;7.03;4.75;;;;;;;;;;5118343;27;20036;-80
2023/10/24 02:44:42;;;;;;;7.30;4.70;;;;;;;;;;5119713;28;20046;-80
2023/10/24 02:47:08;;;;;;;6.35;4.90;;;;;;;;;;5117789;28;20061;-80
2023/10/24 02:49:34;;;;;;;8.15;5.45;;;;;;;;;;5116698;28;20043;-80
2023/10/24 02:52:00;;;;;;;9.45;5.35;;;;;;;;;;5116236;28;20069;-80
2023/10/24 02:54:26;;;;;;;6.28;4.72;;;;;;;;;;5113703;28;20074;-80
2023/10/24 02:56:52;;;;;;;10.65;6.05;;;;;;;;;;5116531;28;20052;-80
2023/10/24 02:59:18;;;;;;;8.55;5.32;;;;;;;;;;5117964;28;20047;-80
2023/10/24 03:01:44;;;;;;;9.07;5.68;;;;;;;;;;5115183;28;20096;-80
2023/10/24 03:04:10;;;;;;;9.85;5.70;;;;;;;;;;5112548;28;20043;-80
2023/10/24 03:06:36;;;;;;;7.05;5.20;;;;;;;;;;5116826;28;20490;-80
2023/10/24 03:09:02;;;;;;;8.45;5.75;;;;;;;;;;5100520;28;20031;-80
2023/10/24 03:11:28;;;;;;;7.78;5.43;;;;;;;;;;5118887;28;20039;-80
2023/10/24 03:13:55;;;;;;;7.53;5.22;;;;;;;;;;5118761;28;20137;-80
2023/10/24 03:16:21;;;;;;;7.32;5.60;;;;;;;;;;5119414;28;20142;-80
2023/10/24 03:18:47;;;;;;;7.50;4.95;;;;;;;;;;5118604;28;20498;-80
2023/10/24 03:21:14;;;;;;;7.47;5.40;;;;;;;;;;5115837;28;20081;-80
2023/10/24 03:23:40;;;;;;;9.13;6.53;;;;;;;;;;5121008;28;20046;-80
2023/10/24 03:26:06;;;;;;;7.75;5.35;;;;;;;;;;5120121;28;20032;-80
2023/10/24 03:28:33;;;;;;;10.18;5.97;;;;;;;;;;5119243;28;20050;-80
2023/10/24 03:31:05;;;;;;;10.32;6.10;;;;;;;;;;5118027;28;20039;-80
2023/10/24 03:33:32;;;;;;;8.45;5.20;;;;;;;;;;5115823;28;20079;-80
2023/10/24 03:35:59;;;;;;;7.07;5.40;;;;;;;;;;5112061;28;20119;-80
2023/10/24 03:38:25;;;;;;;7.22;5.40;;;;;;;;;;5096597;28;20459;-80
2023/10/24 03:40:52;;;;;;;8.43;5.30;;;;;;;;;;5117845;28;20051;-80
2023/10/24 03:43:21;;;;;;;9.45;5.60;;;;;;;;;;5116248;28;20046;-80
2023/10/24 03:45:47;;;;;;;10.70;6.45;;;;;;;;;;5118218;28;20109;-80
2023/10/24 03:48:13;;;;;;;10.20;5.60;;;;;;;;;;5116882;28;20125;-80
2023/10/24 03:50:40;;;;;;;7.00;5.35;;;;;;;;;;5117396;28;20042;-80
2023/10/24 03:53:07;;;;;;;9.32;5.90;;;;;;;;;;5114692;28;20043;-80
2023/10/24 03:55:34;;;;;;;11.65;6.60;;;;;;;;;;5111025;28;20063;-79
2023/10/24 03:58:00;;;;;;;10.85;6.90;;;;;;;;;;5115475;28;20154;-79
2023/10/24 04:00:27;;;;;;;8.35;6.35;;;;;;;;;;5116777;28;20047;-79
2023/10/24 04:02:53;;;;;;;10.70;6.72;;;;;;;;;;5099170;28;20045;-79
2023/10/24 04:05:19;;;;;;;8.38;5.78;;;;;;;;;;5098393;28;20036;-79
2023/10/24 04:07:45;;;;;;;8.30;6.13;;;;;;;;;;5115363;28;20071;-79
2023/10/24 04:10:15;;;;;;;11.82;7.10;;;;;;;;;;5109197;28;20138;-79
2023/10/24 04:12:41;;;;;;;9.25;6.10;;;;;;;;;;5113889;28;20051;-79
2023/10/24 04:15:08;;;;;;;10.23;6.72;;;;;;;;;;5116950;28;20088;-79
2023/10/24 04:17:34;;;;;;;7.75;5.35;;;;;;;;;;5117431;28;20039;-79
2023/10/24 04:20:00;;;;;;;9.10;6.35;;;;;;;;;;5115287;28;20031;-79
2023/10/24 04:22:27;;;;;;;7.63;5.57;;;;;;;;;;5119026;28;20088;-79
2023/10/24 04:24:53;;;;;;;8.32;6.15;;;;;;;;;;5119238;28;20032;-79
2023/10/24 04:27:19;;;;;;;8.75;6.03;;;;;;;;;;5117229;28;20059;-79
2023/10/24 04:29:46;;;;;;;8.23;5.85;;;;;;;;;;5119197;28;20059;-79
2023/10/24 04:32:12;;;;;;;6.78;5.90;;;;;;;;;;5123510;28;20031;-79
2023/10/24 04:34:38;;;;;;;9.02;5.20;;;;;;;;;;5124389;28;20053;-79
2023/10/24 04:37:04;;;;;;;8.73;5.70;;;;;;;;;;5127986;28;20054;-79
2023/10/24 04:39:31;;;;;;;8.57;5.78;;;;;;;;;;5134658;28;20040;-79
2023/10/24 04:41:57;;;;;;;8.85;6.18;;;;;;;;;;5135611;28;20103;-79
2023/10/24 04:44:23;;;;;;;7.15;5.40;;;;;;;;;;5129430;28;20039;-79
2023/10/24 04:46:50;;;;;;;10.50;5.45;;;;;;;;;;5097806;28;20031;-79
2023/10/24 04:49:17;;;;;;;7.03;5.78;;;;;;;;;;5116285;28;20059;-79
2023/10/24 04:51:43;;;;;;;6.63;5.05;;;;;;;;;;5114593;28;20038;-79
2023/10/24 04:54:09;;;;;;;7.22;5.13;;;;;;;;;;5115024;28;20517;-79
2023/10/24 04:56:35;;;;;;;5.57;4.82;;;;;;;;;;5115381;28;20047;-79
2023/10/24 04:59:02;;;;;;;7.70;4.90;;;;;;;;;;5114673;28;20043;-79
2023/10/24 05:01:28;;;;;;;7.40;4.47;;;;;;;;;;5115551;28;20048;-79
2023/10/24 05:03:54;;;;;;;7.65;4.22;;;;;;;;;;5098191;28;20043;-79
2023/10/24 05:06:20;;;;;;;6.38;4.68;;;;;;;;;;5114756;28;20414;-80
2023/10/24 05:08:46;;;;;;;5.05;4.15;;;;;;;;;;5113553;28;20096;-79
2023/10/24 05:11:12;;;;;;;4.85;4.25;;;;;;;;;;5114352;28;20036;-79
2023/10/24 05:13:38;;;;;;;5.22;4.38;;;;;;;;;;5101323;28;20067;-79
2023/10/24 05:16:04;;;;;;;6.53;3.60;;;;;;;;;;5118144;28;20483;-79
2023/10/24 05:18:30;;;;;;;6.82;4.45;;;;;;;;;;5119049;28;20044;-79
2023/10/24 05:20:56;;;;;;;7.30;4.50;;;;;;;;;;5118563;28;20046;-79
2023/10/24 05:23:22;;;;;;;5.85;3.97;;;;;;;;;;5114826;28;20035;-79
2023/10/24 05:25:50;;;;;;;5.38;4.07;;;;;;;;;;5120239;28;20031;-79
2023/10/24 05:28:16;;;;;;;6.22;3.95;;;;;;;;;;5119499;28;20036;-79
2023/10/24 05:30:42;;;;;;;4.57;3.47;;;;;;;;;;5119702;28;20038;-79
2023/10/24 05:33:08;;;;;;;5.50;3.70;;;;;;;;;;5118373;28;20035;-79
2023/10/24 05:35:34;;;;;;;6.60;3.83;;;;;;;;;;5117757;28;20051;-79
2023/10/24 05:38:00;;;;;;;6.38;4.10;;;;;;;;;;5113880;27;20406;-80
2023/10/24 05:40:26;;;;;;;4.50;3.47;;;;;;;;;;5115599;28;20074;-80
2023/10/24 05:42:52;;;;;;;6.68;4.40;;;;;;;;;;5113932;27;20199;-80
2023/10/24 05:45:21;;;;;;;4.45;3.45;;;;;;;;;;5113367;28;20067;-80
2023/10/24 05:47:47;;;;;;;6.05;4.43;;;;;;;;;;5101335;28;20152;-79
2023/10/24 05:50:13;;;;;;;4.80;3.80;;;;;;;;;;5118228;28;20085;-80
2023/10/24 05:52:39;;;;;;;5.50;4.03;;;;;;;;;;5117667;28;20127;-80
2023/10/24 05:55:05;;;;;;;7.88;4.20;;;;;;;;;;5118290;28;20031;-80
2023/10/24 05:57:31;;;;;;;5.13;3.17;;;;;;;;;;5117604;28;20048;-80
2023/10/24 05:59:57;;;;;;;6.75;4.25;;;;;;;;;;5116160;28;20050;-80
2023/10/24 06:02:23;;;;;;;6.63;4.68;;;;;;;;;;5119530;28;20075;-80
2023/10/24 06:04:49;;;;;;;5.18;4.10;;;;;;;;;;5125441;28;20035;-80
2023/10/24 06:07:15;;;;;;;6.75;3.67;;;;;;;;;;5131104;28;20097;-80
2023/10/24 06:09:41;;;;;;;6.38;4.30;;;;;;;;;;5132153;28;20031;-80
2023/10/24 06:12:10;;;;;;;3.90;3.40;;;;;;;;;;5132049;28;20032;-80
2023/10/24 06:14:36;;;;;;;5.28;3.80;;;;;;;;;;5129944;28;20032;-80
2023/10/24 06:17:02;;;;;;;5.10;3.90;;;;;;;;;;5128320;28;20051;-80
2023/10/24 06:19:29;;;;;;;6.18;3.70;;;;;;;;;;5113565;28;20032;-80
2023/10/24 06:21:55;;;;;;;6.38;3.58;;;;;;;;;;5129744;28;20042;-80
2023/10/24 06:24:21;;;;;;;4.13;2.83;;;;;;;;;;5130720;28;20032;-80
2023/10/24 06:26:47;;;;;;;4.25;3.65;;;;;;;;;;5124435;28;20505;-80
2023/10/24 06:29:13;;;;;;;4.75;3.28;;;;;;;;;;5114845;28;20062;-79
2023/10/24 06:31:42;;;;;;;7.50;3.50;;;;;;;;;;5097629;28;20039;-80
2023/10/24 06:34:08;;;;;;;5.38;3.78;;;;;;;;;;5121108;28;20036;-80
2023/10/24 06:36:34;;;;;;;4.90;3.08;;;;;;;;;;5109008;28;20039;-81
2023/10/24 06:39:02;;;;;;;6.00;3.75;;;;;;;;;;5118140;28;20036;-81
2023/10/24 06:41:28;;;;;;;6.10;3.22;;;;;;;;;;5118997;28;20046;-81
2023/10/24 06:43:54;;;;;;;6.43;3.30;;;;;;;;;;5114348;28;20043;-81
2023/10/24 06:46:20;;;;;;;4.75;3.03;;;;;;;;;;5114547;28;20122;-80
2023/10/24 06:48:46;;;;;;;5.18;3.60;;;;;;;;;;5113531;28;20042;-79
2023/10/24 06:51:12;;;;;;;5.00;3.35;;;;;;;;;;5117082;28;20061;-81
2023/10/24 06:53:38;;;;;;;6.15;3.35;;;;;;;;;;5097387;28;20139;-81
2023/10/24 06:56:04;;;;;;;4.18;3.25;;;;;;;;;;5113771;28;20409;-81
2023/10/24 06:58:30;;;;;;;4.05;3.30;;;;;;;;;;5115942;28;20112;-81
2023/10/24 07:00:56;;;;;;;5.63;3.97;;;;;;;;;;5096635;28;20075;-81
2023/10/24 07:03:22;;;;;;;6.45;3.30;;;;;;;;;;5109374;28;20586;-81
2023/10/24 07:05:52;;;;;;;4.97;3.25;;;;;;;;;;5114894;28;20055;-81
2023/10/24 07:08:18;;;;;;;5.05;3.47;;;;;;;;;;5116526;28;20224;-81
2023/10/24 07:10:44;;;;;;;4.55;3.40;;;;;;;;;;5113835;28;20039;-81
2023/10/24 07:13:11;;;;;;;6.85;3.45;;;;;;;;;;5113103;28;20043;-81
2023/10/24 07:15:38;;;;;;;5.78;3.80;;;;;;;;;;5150017;27;20127;-81
2023/10/24 07:18:04;;;;;;;4.47;3.70;;;;;;;;;;5116927;28;20044;-81
2023/10/24 07:20:30;;;;;;;5.55;3.47;;;;;;;;;;5117033;28;20051;-82
2023/10/24 07:22:56;;;;;;;6.20;3.78;;;;;;;;;;5117272;28;20032;-82
2023/10/24 07:25:22;;;;;;;6.55;3.88;;;;;;;;;;5116550;28;20038;-82
2023/10/24 07:27:48;;;;;;;9.05;5.13;;;;;;;;;;5113356;28;20042;-81
2023/10/24 07:30:14;;;;;;;6.85;3.60;;;;;;;;;;5114210;28;20127;-81
2023/10/24 07:32:40;;;;;;;5.15;3.33;;;;;;;;;;5113607;28;20043;-81
2023/10/24 07:35:08;;;;;;;5.28;3.60;;;;;;;;;;5115748;28;20046;-81
2023/10/24 07:37:36;;;;;;;7.63;4.72;;;;;;;;;;5114432;28;20062;-81
2023/10/24 07:40:02;;;;;;;7.00;4.53;;;;;;;;;;5115067;28;20417;-81
2023/10/24 07:42:28;;;;;;;6.80;4.43;;;;;;;;;;5115081;28;20039;-81
2023/10/24 07:44:56;;;;;;;6.30;3.97;;;;;;;;;;5117206;27;20028;-81
2023/10/24 07:47:22;;;;;;;5.72;3.83;;;;;;;;;;5110853;28;20040;-81
2023/10/24 07:49:48;;;;;;;5.68;3.88;;;;;;;;;;5116176;28;20035;-81
2023/10/24 07:52:14;;;;;;;6.85;4.00;;;;;;;;;;5099229;28;20069;-81
2023/10/24 07:54:40;;;;;;;6.45;4.10;;;;;;;;;;5115554;28;20096;-81
2023/10/24 07:57:06;;;;;;;7.00;3.85;;;;;;;;;;5115883;28;20052;-82
2023/10/24 07:59:32;;;;;;;6.38;4.43;;;;;;;;;;5110957;28;20044;-81
2023/10/24 08:01:58;;;;;;;7.35;4.47;;;;;;;;;;5116481;28;20063;-81
2023/10/24 08:04:25;;;;;;;7.70;4.32;;;;;;;;;;5115047;28;20050;-81
2023/10/24 08:06:51;;;;;;;7.50;5.05;;;;;;;;;;5117875;28;20128;-82
2023/10/24 08:09:17;;;;;;;5.82;3.92;;;;;;;;;;5113983;28;20046;-81
2023/10/24 08:11:43;;;;;;;6.40;4.25;;;;;;;;;;5115645;28;20024;-82
2023/10/24 08:14:09;;;;;;;8.27;5.50;;;;;;;;;;5115866;28;20043;-81
2023/10/24 08:16:36;;;;;;;7.80;5.10;;;;;;;;;;5116345;28;20043;-81
2023/10/24 08:19:03;;;;;;;6.63;4.38;;;;;;;;;;5111646;28;20036;-81
2023/10/24 08:21:29;;;;;;;6.82;4.20;;;;;;;;;;5113758;28;20032;-81
2023/10/24 08:23:56;;;;;;;7.40;4.40;;;;;;;;;;5113091;28;20449;-81
2023/10/24 08:26:22;;;;;;;6.90;4.35;;;;;;;;;;5116657;28;20051;-82
2023/10/24 08:28:48;;;;;;;8.02;4.55;;;;;;;;;;5116532;28;20452;-82
2023/10/24 08:31:14;;;;;;;6.78;4.50;;;;;;;;;;5119096;28;20039;-81
2023/10/24 08:33:40;;;;;;;8.10;5.05;;;;;;;;;;5125846;28;20058;-82
2023/10/24 08:36:06;;;;;;;9.02;4.65;;;;;;;;;;5127244;28;20131;-81
2023/10/24 08:38:32;;;;;;;8.05;5.20;;;;;;;;;;5126046;28;20123;-82
2023/10/24 08:40:59;;;;;;;5.72;3.80;;;;;;;;;;5121619;28;20462;-81
2023/10/24 08:43:25;;;;;;;8.05;4.97;;;;;;;;;;5121796;27;20069;-81
2023/10/24 08:45:52;;;;;;;6.57;4.00;;;;;;;;;;5120288;28;20034;-82
2023/10/24 08:48:18;;;;;;;6.15;3.67;;;;;;;;;;5119978;28;20105;-82
2023/10/24 08:50:44;;;;;;;9.38;4.95;;;;;;;;;;5120087;28;20088;-82
2023/10/24 08:53:13;;;;;;;7.07;4.97;;;;;;;;;;5120234;28;20126;-82
2023/10/24 08:55:44;;;;;;;6.82;4.93;;;;;;;;;;5118384;28;20043;-81
2023/10/24 08:58:27;;;;;;;7.20;4.32;;;;;;;;;;5084204;28;20058;-81
2023/10/24 09:00:54;;;;;;;7.63;5.15;;;;;;;;;;5120907;28;20050;-81
2023/10/24 09:03:20;;;;;;;7.35;4.22;;;;;;;;;;5119932;28;20043;-82
2023/10/24 09:05:46;;;;;;;7.60;4.68;;;;;;;;;;5121124;28;20043;-82
2023/10/24 09:08:16;;;;;;;7.57;4.25;;;;;;;;;;5120212;28;20165;-82
2023/10/24 09:10:42;;;;;;;6.07;4.63;;;;;;;;;;5118444;28;20035;-81
2023/10/24 09:13:08;;;;;;;5.85;4.60;;;;;;;;;;5114876;28;20039;-81
2023/10/24 09:15:36;;;;;;;7.15;4.80;;;;;;;;;;5118581;28;20040;-81
2023/10/24 09:18:03;;;;;;;7.53;4.90;;;;;;;;;;5116781;28;20581;-81
2023/10/24 09:20:35;;;;;;;7.53;5.20;;;;;;;;;;5118114;28;20099;-81
2023/10/24 09:23:06;;;;;;;6.60;4.88;;;;;;;;;;5116554;28;20040;-81
2023/10/24 09:25:32;;;;;;;4.97;4.05;;;;;;;;;;5116518;28;20554;-81
2023/10/24 09:28:18;;;;;;;7.63;4.63;;;;;;;;;;5117230;28;20048;-81
2023/10/24 09:30:44;;;;;;;6.75;4.45;;;;;;;;;;5115358;28;20051;-81
2023/10/24 09:33:13;;;;;;;5.75;4.00;;;;;;;;;;5118495;28;20077;-81
2023/10/24 09:35:39;;;;;;;7.30;4.45;;;;;;;;;;5113240;28;20031;-81
2023/10/24 09:38:07;;;;;;;8.15;4.82;;;;;;;;;;5116376;28;20040;-81
2023/10/24 09:40:36;;;;;;;7.95;4.43;;;;;;;;;;5118171;28;20439;-81
2023/10/24 09:43:10;;;;;;;6.07;4.30;;;;;;;;;;5118293;28;20028;-81
2023/10/24 09:45:37;;;;;;;5.03;3.72;;;;;;;;;;5119034;28;20067;-81
2023/10/24 09:48:03;;;;;;;6.65;4.53;;;;;;;;;;5117472;28;20038;-81
2023/10/24 09:50:30;;;;;;;6.10;4.38;;;;;;;;;;5119335;28;20042;-82
2023/10/24 09:52:56;;;;;;;5.75;4.15;;;;;;;;;;5119576;28;20027;-81
2023/10/24 09:55:22;;;;;;;4.65;3.78;;;;;;;;;;5117116;28;20043;-81
2023/10/24 09:57:50;;;;;;;7.88;3.63;;;;;;;;;;5097355;28;20395;-82
2023/10/24 10:00:16;;;;;;;6.65;3.63;;;;;;;;;;5111704;28;20040;-82
2023/10/24 10:02:44;;;;;;;5.10;3.45;;;;;;;;;;5112637;28;20122;-82
2023/10/24 10:05:10;;;;;;;4.78;3.17;;;;;;;;;;5112353;28;20036;-83
2023/10/24 10:07:37;;;;;;;6.60;3.83;;;;;;;;;;5117158;28;20036;-81
2023/10/24 10:10:04;;;;;;;5.72;4.03;;;;;;;;;;5118897;27;20481;-81
2023/10/24 10:12:31;;;;;;;5.70;4.57;;;;;;;;;;5122211;27;20051;-81
2023/10/24 10:15:09;;;;;;;5.85;4.13;;;;;;;;;;5124194;28;20031;-82
2023/10/24 10:17:53;;;;;;;6.07;4.03;;;;;;;;;;5122998;28;20078;-81
2023/10/24 10:20:38;;;;;;;6.20;4.40;;;;;;;;;;5119663;28;20050;-81
2023/10/24 10:23:07;;;;;;;5.68;3.75;;;;;;;;;;5120705;28;20444;-81
2023/10/24 10:25:49;;;;;;;5.40;3.95;;;;;;;;;;5115094;28;20039;-80
2023/10/24 10:28:26;;;;;;;6.65;3.65;;;;;;;;;;5121241;28;20047;-81
2023/10/24 10:30:59;;;;;;;6.10;3.55;;;;;;;;;;5110300;28;20040;-81
2023/10/24 10:33:26;;;;;;;6.57;4.07;;;;;;;;;;5124406;28;20055;-81
2023/10/24 10:36:04;;;;;;;6.15;3.47;;;;;;;;;;5123393;28;20074;-81
2023/10/24 10:38:35;;;;;;;5.60;3.35;;;;;;;;;;5121068;27;20096;-81
2023/10/24 10:41:34;;;;;;;5.85;3.45;;;;;;;;;;5120309;27;20104;-80
2023/10/24 10:44:02;;;;;;;4.90;3.22;;;;;;;;;;5073522;28;20390;-81
2023/10/24 10:46:29;;;;;;;5.85;4.38;;;;;;;;;;5121983;28;20046;-81
2023/10/24 10:49:07;;;;;;;5.40;3.55;;;;;;;;;;5125459;28;20032;-81
2023/10/24 10:51:34;;;;;;;5.80;4.05;;;;;;;;;;5122656;28;20056;-82
2023/10/24 10:54:00;;;;;;;5.60;3.92;;;;;;;;;;5120132;28;20045;-82
2023/10/24 10:56:30;;;;;;;6.25;4.10;;;;;;;;;;5122342;28;20088;-81
2023/10/24 10:58:56;;;;;;;;;;;;;;;;;;5123291;28;20043;-81
2023/10/24 11:01:22;;;;;;;4.20;3.60;;;;;;;;;;5121365;28;19969;-80
2023/10/24 11:03:49;;;;;;;5.85;3.58;;;;;;;;;;5124106;28;20115;-81
2023/10/24 11:06:16;;;;;;;6.65;4.28;;;;;;;;;;5121958;28;20032;-81
2023/10/24 11:08:44;;;;;;;6.28;4.85;;;;;;;;;;5121307;28;20126;-81
2023/10/24 11:11:10;;;;;;;7.82;5.13;;;;;;;;;;5122607;28;20043;-81
2023/10/24 11:13:38;;;;;;;7.38;4.65;;;;;;;;;;5123899;28;20044;-80
2023/10/24 11:16:07;;;;;;;7.88;5.30;;;;;;;;;;5121840;28;20046;-81
2023/10/24 11:18:34;;;;;;;7.95;4.72;;;;;;;;;;5122403;28;20055;-83
2023/10/24 11:21:01;;;;;;;7.32;4.97;;;;;;;;;;5119558;27;20082;-81
2023/10/24 11:23:27;;;;;;;7.65;4.28;;;;;;;;;;5120676;27;20095;-81
2023/10/24 11:25:57;;;;;;;8.13;4.85;;;;;;;;;;5102185;28;20035;-81
2023/10/24 11:28:25;;;;;;;;;;;;;;;;;;5118114;28;20101;-81
2023/10/24 11:30:51;;;;;;;9.45;4.68;;;;;;;;;;5101188;28;19916;-82
2023/10/24 11:33:18;;;;;;;7.15;4.35;;;;;;;;;;5116172;28;20039;-81
2023/10/24 11:35:46;;;;;;;9.40;4.88;;;;;;;;;;5102084;27;20043;-82
2023/10/24 11:38:14;;;;;;;8.07;4.88;;;;;;;;;;5109324;28;20066;-82
2023/10/24 11:40:40;;;;;;;6.38;4.82;;;;;;;;;;5118725;28;20043;-82
2023/10/24 11:43:07;;;;;;;4.70;3.90;;;;;;;;;;5110355;28;20063;-82
2023/10/24 11:45:34;;;;;;;5.53;4.60;;;;;;;;;;5107191;28;20044;-82
2023/10/24 11:48:00;;;;;;;7.10;4.63;;;;;;;;;;5118020;28;20039;-82
2023/10/24 11:50:45;;;;;;;6.20;4.65;;;;;;;;;;5113485;27;20050;-82
2023/10/24 11:53:11;;;;;;;6.57;5.00;;;;;;;;;;5128940;28;20041;-82
2023/10/24 11:55:41;;;;;;;6.93;5.55;;;;;;;;;;5133434;27;20078;-82
2023/10/24 11:58:08;;;;;;;6.45;4.28;;;;;;;;;;5110541;28;20036;-82
2023/10/24 12:00:34;;;;;;;9.45;5.18;;;;;;;;;;5127118;28;20044;-83
2023/10/24 12:03:10;;;;;;;6.55;5.13;;;;;;;;;;5127632;28;20039;-82
2023/10/24 12:05:36;;;;;;;7.53;4.72;;;;;;;;;;5120857;28;20061;-82
2023/10/24 12:08:03;;;;;;;6.85;5.10;;;;;;;;;;5125906;28;20035;-82
2023/10/24 12:10:33;;;;;;;6.50;4.90;;;;;;;;;;5117622;28;20106;-81
2023/10/24 12:13:02;;;;;;;7.95;5.57;;;;;;;;;;5120448;28;20082;-81
2023/10/24 12:15:29;;;;;;;6.57;5.03;;;;;;;;;;5109350;28;20070;-81
2023/10/24 12:17:57;;;;;;;6.70;5.13;;;;;;;;;;5106480;28;20107;-81
2023/10/24 12:20:23;;;;;;;6.47;5.32;;;;;;;;;;5112583;28;20034;-81
2023/10/24 12:22:49;;;;;;;7.57;4.90;;;;;;;;;;5123024;28;20100;-81
2023/10/24 12:25:17;;;;;;;6.00;4.95;;;;;;;;;;5101873;28;20035;-81
2023/10/24 12:27:43;;;;;;;8.73;5.32;;;;;;;;;;5104140;28;20229;-81
2023/10/24 12:30:11;;;;;;;7.38;5.20;;;;;;;;;;5102986;28;20088;-82
2023/10/24 12:32:37;;;;;;;6.82;5.40;;;;;;;;;;5103584;28;20044;-81
2023/10/24 12:35:06;;;;;;;6.47;5.00;;;;;;;;;;5117382;28;20031;-82
2023/10/24 12:37:32;;;;;;;7.72;5.20;;;;;;;;;;5122890;28;20103;-81
2023/10/24 12:39:58;;;;;;;7.78;5.10;;;;;;;;;;5119994;28;20042;-81
2023/10/24 12:42:24;;;;;;;7.95;5.25;;;;;;;;;;5124300;27;20097;-82
2023/10/24 12:44:53;;;;;;;7.07;5.00;;;;;;;;;;5125924;28;20019;-81
2023/10/24 12:47:20;;;;;;;6.10;4.72;;;;;;;;;;5132093;28;20069;-82
2023/10/24 12:49:46;;;;;;;7.40;5.38;;;;;;;;;;5120048;27;20043;-82
2023/10/24 12:52:12;;;;;;;6.63;4.97;;;;;;;;;;5113897;28;20031;-81
2023/10/24 12:54:38;;;;;;;7.10;4.97;;;;;;;;;;5103043;28;20126;-82
2023/10/24 12:57:06;;;;;;;5.40;4.35;;;;;;;;;;5125279;28;20494;-82
2023/10/24 12:59:32;;;;;;;6.60;4.53;;;;;;;;;;5126309;28;20517;-82
2023/10/24 13:01:58;;;;;;;5.78;4.53;;;;;;;;;;5107236;28;20104;-82
2023/10/24 13:04:24;;;;;;;5.55;5.03;;;;;;;;;;5123197;28;20052;-80
2023/10/24 13:06:54;;;;;;;4.82;4.22;;;;;;;;;;5126543;28;20118;-79
2023/10/24 13:09:20;;;;;;;5.05;4.35;;;;;;;;;;5124102;28;20040;-80
2023/10/24 13:11:46;;;;;;;6.50;4.47;;;;;;;;;;5119617;28;20096;-81
2023/10/24 13:14:12;;;;;;;6.35;4.60;;;;;;;;;;5123709;28;20044;-81
2023/10/24 13:16:39;;;;;;;5.45;4.20;;;;;;;;;;5120278;28;20051;-81
2023/10/24 13:19:05;;;;;;;5.72;4.65;;;;;;;;;;5121697;28;20042;-82
2023/10/24 13:21:31;;;;;;;4.85;3.75;;;;;;;;;;5105766;28;20126;-82
2023/10/24 13:23:57;;;;;;;6.32;4.63;;;;;;;;;;5101561;28;20044;-82
2023/10/24 13:26:23;;;;;;;6.63;4.10;;;;;;;;;;5122188;28;20043;-82
2023/10/24 13:28:49;;;;;;;4.90;4.40;;;;;;;;;;5124273;28;20032;-81
2023/10/24 13:31:15;;;;;;;5.25;3.80;;;;;;;;;;5122495;28;20036;-82
2023/10/24 13:33:43;;;;;;;6.18;3.92;;;;;;;;;;5124509;28;20032;-82
2023/10/24 13:36:11;;;;;;;5.65;4.25;;;;;;;;;;5126066;28;20043;-82
2023/10/24 13:38:37;;;;;;;4.53;4.05;;;;;;;;;;5121870;28;20095;-82
2023/10/24 13:41:03;;;;;;;7.18;4.13;;;;;;;;;;5125558;28;20040;-82
2023/10/24 13:43:29;;;;;;;6.85;4.22;;;;;;;;;;5119469;28;20107;-82
2023/10/24 13:45:55;;;;;;;6.30;4.00;;;;;;;;;;5121010;28;20078;-83
2023/10/24 13:48:21;;;;;;;6.93;4.10;;;;;;;;;;5119064;27;20093;-83
2023/10/24 13:50:47;;;;;;;4.53;3.70;;;;;;;;;;5116920;27;20043;-82
2023/10/24 13:53:13;;;;;;;5.22;4.15;;;;;;;;;;5119262;28;20040;-81
2023/10/24 13:55:40;;;;;;;4.65;3.90;;;;;;;;;;5123396;28;20051;-81
2023/10/24 13:58:05;;;;;;;4.55;3.47;;;;;;;;;;5123330;27;20461;-81
2023/10/24 14:00:31;;;;;;;5.50;3.33;;;;;;;;;;5123385;27;20138;-84
2023/10/24 14:02:58;;;;;;;5.00;4.13;;;;;;;;;;5121984;28;20071;-83
2023/10/24 14:05:26;;;;;;;5.00;3.42;;;;;;;;;;5117710;28;20035;-84
2023/10/24 14:07:53;;;;;;;5.03;4.03;;;;;;;;;;5115772;28;20065;-84
2023/10/24 14:10:19;;;;;;;5.43;3.42;;;;;;;;;;5121490;28;20040;-83
2023/10/24 14:12:46;;;;;;;4.57;4.10;;;;;;;;;;5123325;28;20065;-82
2023/10/24 14:15:12;;;;;;;5.40;3.72;;;;;;;;;;5126094;27;20050;-83
2023/10/24 14:17:38;;;;;;;5.57;4.50;;;;;;;;;;5121643;27;20103;-83
2023/10/24 14:20:06;;;;;;;4.70;3.90;;;;;;;;;;5121858;28;20039;-81
2023/10/24 14:22:32;;;;;;;5.43;3.63;;;;;;;;;;5146197;27;20048;-81
2023/10/24 14:24:58;;;;;;;3.60;3.30;;;;;;;;;;5124879;28;20031;-81
2023/10/24 14:27:25;;;;;;;5.20;3.90;;;;;;;;;;5121820;28;20036;-81
2023/10/24 14:29:51;;;;;;;4.60;3.58;;;;;;;;;;5119550;28;20044;-81
2023/10/24 14:32:17;;;;;;;5.47;3.65;;;;;;;;;;5120058;28;20046;-81
2023/10/24 14:34:43;;;;;;;3.85;3.35;;;;;;;;;;5123775;28;20028;-81
2023/10/24 14:37:09;;;;;;;4.00;3.35;;;;;;;;;;5119110;28;20044;-81
2023/10/24 14:39:35;;;;;;;4.15;3.10;;;;;;;;;;5123074;28;20496;-81
2023/10/24 14:42:01;;;;;;;5.07;3.63;;;;;;;;;;5105688;28;20134;-81